Time;durP1;ratioP1;P1;durP2;ratioP2;P2;SDS_P1;SDS_P2;PMS_P1;PMS_P2;Temp;Humidity;BMP_temperature;BMP_pressure;BME280_temperature;BME280_humidity;BME280_pressure;Samples;Min_cycle;Max_cycle;Signal;HPM_P1;HPM_P2
2021/07/18 00:03:17;;;;;;;1.05;0.28;;;;;;;;;;10306896;28;20491;-22
2021/07/18 00:08:20;;;;;;;0.20;0.20;;;;;;;;;;10303788;28;20059;-22
2021/07/18 00:13:24;;;;;;;0.95;0.30;;;;;;;;;;10297056;28;20043;-22
2021/07/18 00:18:27;;;;;;;0.82;0.20;;;;;;;;;;10304508;28;20503;-22
2021/07/18 00:23:29;;;;;;;0.80;0.20;;;;;;;;;;10310159;28;20042;-22
2021/07/18 00:28:33;;;;;;;0.40;0.30;;;;;;;;;;10343005;28;20530;-21
2021/07/18 00:33:36;;;;;;;0.88;0.40;;;;;;;;;;10330106;28;20050;-22
2021/07/18 00:38:39;;;;;;;0.85;0.30;;;;;;;;;;10330534;28;20046;-21
2021/07/18 00:43:44;;;;;;;0.45;0.20;;;;;;;;;;10331269;28;20057;-22
2021/07/18 00:48:47;;;;;;;0.20;0.20;;;;;;;;;;10319952;28;20043;-22
2021/07/18 00:53:50;;;;;;;0.20;0.20;;;;;;;;;;10327632;28;20129;-21
2021/07/18 00:58:54;;;;;;;0.40;0.20;;;;;;;;;;10326386;28;20058;-22
2021/07/18 01:03:58;;;;;;;0.35;0.30;;;;;;;;;;10324087;28;20038;-21
2021/07/18 01:09:01;;;;;;;0.95;0.38;;;;;;;;;;10321827;28;20038;-21
2021/07/18 01:14:06;;;;;;;0.25;0.17;;;;;;;;;;10319942;28;20053;-22
2021/07/18 01:19:10;;;;;;;0.43;0.30;;;;;;;;;;10315171;28;20191;-23
2021/07/18 01:24:14;;;;;;;1.15;0.45;;;;;;;;;;10320582;28;20050;-22
2021/07/18 01:29:17;;;;;;;0.45;0.30;;;;;;;;;;10307880;28;20058;-22
2021/07/18 01:34:19;;;;;;;0.85;0.30;;;;;;;;;;10310940;28;20046;-22
2021/07/18 01:39:24;;;;;;;0.73;0.20;;;;;;;;;;10296139;28;20046;-22
2021/07/18 01:44:27;;;;;;;0.98;0.38;;;;;;;;;;10306299;28;20049;-21
2021/07/18 01:49:29;;;;;;;0.63;0.38;;;;;;;;;;10304678;28;20051;-21
2021/07/18 01:54:33;;;;;;;0.60;0.20;;;;;;;;;;10300281;28;20045;-22
2021/07/18 01:59:36;;;;;;;0.40;0.38;;;;;;;;;;10305826;28;20054;-21
2021/07/18 02:04:39;;;;;;;0.70;0.32;;;;;;;;;;10299720;28;20041;-21
2021/07/18 02:09:43;;;;;;;0.20;0.20;;;;;;;;;;10315682;28;20048;-22
2021/07/18 02:14:45;;;;;;;0.30;0.20;;;;;;;;;;10329983;28;20485;-21
2021/07/18 02:19:48;;;;;;;0.45;0.30;;;;;;;;;;10333326;28;20042;-21
2021/07/18 02:24:52;;;;;;;0.55;0.30;;;;;;;;;;10324833;28;20153;-22
2021/07/18 02:29:55;;;;;;;2.00;0.32;;;;;;;;;;10328937;28;20064;-22
2021/07/18 02:34:58;;;;;;;0.77;0.32;;;;;;;;;;10324404;28;20088;-21
2021/07/18 02:40:02;;;;;;;1.30;0.25;;;;;;;;;;10321722;28;20048;-21
2021/07/18 02:45:05;;;;;;;0.43;0.25;;;;;;;;;;10326079;28;20069;-22
2021/07/18 02:50:09;;;;;;;0.30;0.22;;;;;;;;;;10322295;28;20038;-21
2021/07/18 02:55:13;;;;;;;0.73;0.40;;;;;;;;;;10323782;28;20038;-22
2021/07/18 03:00:17;;;;;;;1.85;0.50;;;;;;;;;;10318551;28;20046;-22
2021/07/18 03:05:20;;;;;;;0.77;0.40;;;;;;;;;;10318990;28;20129;-22
2021/07/18 03:10:24;;;;;;;0.30;0.30;;;;;;;;;;10313138;28;20503;-22
2021/07/18 03:15:27;;;;;;;0.60;0.32;;;;;;;;;;10317454;28;20042;-21
2021/07/18 03:20:29;;;;;;;0.75;0.40;;;;;;;;;;10308633;28;20045;-21
2021/07/18 03:25:33;;;;;;;1.38;0.40;;;;;;;;;;10306808;28;20046;-21
2021/07/18 03:30:36;;;;;;;2.45;0.47;;;;;;;;;;10301565;28;20064;-21
2021/07/18 03:35:39;;;;;;;1.23;0.38;;;;;;;;;;10306965;28;20045;-22
2021/07/18 03:40:43;;;;;;;0.30;0.30;;;;;;;;;;10308420;28;20050;-21
2021/07/18 03:45:46;;;;;;;1.23;0.30;;;;;;;;;;10319185;28;20049;-21
2021/07/18 03:50:49;;;;;;;0.90;0.40;;;;;;;;;;10320673;28;20054;-22
2021/07/18 03:55:53;;;;;;;0.75;0.40;;;;;;;;;;10332309;28;20054;-21
2021/07/18 04:00:56;;;;;;;0.40;0.40;;;;;;;;;;10330897;28;20136;-22
2021/07/18 04:06:00;;;;;;;0.55;0.25;;;;;;;;;;10325634;28;20034;-21
2021/07/18 04:11:04;;;;;;;0.63;0.30;;;;;;;;;;10322537;28;20056;-22
2021/07/18 04:16:07;;;;;;;0.70;0.30;;;;;;;;;;10319243;28;20108;-21
2021/07/18 04:21:10;;;;;;;0.93;0.40;;;;;;;;;;10317212;28;20046;-23
2021/07/18 04:26:14;;;;;;;0.73;0.40;;;;;;;;;;10305045;28;20042;-22
2021/07/18 04:31:17;;;;;;;0.63;0.32;;;;;;;;;;10303643;28;20068;-22
2021/07/18 04:36:20;;;;;;;0.85;0.40;;;;;;;;;;10298457;28;20401;-23
2021/07/18 04:41:27;;;;;;;0.82;0.40;;;;;;;;;;10301693;28;20051;-22
2021/07/18 04:46:30;;;;;;;0.70;0.50;;;;;;;;;;10299549;28;20074;-23
2021/07/18 04:51:33;;;;;;;0.52;0.32;;;;;;;;;;10303532;28;20042;-23
2021/07/18 04:56:37;;;;;;;0.75;0.47;;;;;;;;;;10297080;28;20042;-21
2021/07/18 05:01:41;;;;;;;1.65;0.30;;;;;;;;;;10297904;28;20038;-21
2021/07/18 05:06:44;;;;;;;0.93;0.40;;;;;;;;;;10309665;28;20046;-20
2021/07/18 05:11:48;;;;;;;0.45;0.28;;;;;;;;;;10312536;28;20080;-21
2021/07/18 05:16:51;;;;;;;1.00;0.45;;;;;;;;;;10314553;28;20050;-20
2021/07/18 05:21:57;;;;;;;1.25;0.50;;;;;;;;;;10312043;28;20072;-21
2021/07/18 05:27:02;;;;;;;1.30;0.40;;;;;;;;;;10299218;28;20057;-21
2021/07/18 05:32:06;;;;;;;0.75;0.40;;;;;;;;;;10308302;28;20065;-21
2021/07/18 05:37:10;;;;;;;0.50;0.30;;;;;;;;;;10321033;28;20132;-21
2021/07/18 05:42:14;;;;;;;0.40;0.30;;;;;;;;;;10318753;28;20046;-22
2021/07/18 05:47:18;;;;;;;0.52;0.30;;;;;;;;;;10317288;28;20050;-21
2021/07/18 05:52:20;;;;;;;0.57;0.40;;;;;;;;;;10323274;28;20068;-21
2021/07/18 05:57:25;;;;;;;1.30;0.30;;;;;;;;;;10321907;28;20039;-21
2021/07/18 06:02:29;;;;;;;1.38;0.32;;;;;;;;;;10326918;28;20108;-21
2021/07/18 06:07:32;;;;;;;0.50;0.30;;;;;;;;;;10323439;28;20042;-22
2021/07/18 06:12:36;;;;;;;1.02;0.50;;;;;;;;;;10318615;28;20078;-21
2021/07/18 06:17:39;;;;;;;0.30;0.25;;;;;;;;;;10315353;28;20049;-22
2021/07/18 06:22:42;;;;;;;0.45;0.40;;;;;;;;;;10316834;28;20056;-21
2021/07/18 06:27:47;;;;;;;0.57;0.47;;;;;;;;;;10310564;28;20046;-22
2021/07/18 06:32:49;;;;;;;1.13;0.50;;;;;;;;;;10306443;28;20058;-21
2021/07/18 06:37:52;;;;;;;0.75;0.43;;;;;;;;;;10300001;28;20044;-22
2021/07/18 06:42:56;;;;;;;0.80;0.35;;;;;;;;;;10316845;28;20046;-21
2021/07/18 06:48:00;;;;;;;0.85;0.40;;;;;;;;;;10301404;28;20401;-21
2021/07/18 06:53:03;;;;;;;1.35;0.55;;;;;;;;;;10311288;28;20051;-21
2021/07/18 06:58:07;;;;;;;0.55;0.30;;;;;;;;;;10351725;28;20053;-21
2021/07/18 07:03:09;;;;;;;0.40;0.40;;;;;;;;;;10335402;28;20841;-22
2021/07/18 07:08:12;;;;;;;2.10;0.60;;;;;;;;;;10337672;28;20046;-22
2021/07/18 07:13:17;;;;;;;0.98;0.30;;;;;;;;;;10340145;28;21017;-22
2021/07/18 07:18:19;;;;;;;0.52;0.30;;;;;;;;;;10344264;28;20042;-22
2021/07/18 07:23:22;;;;;;;0.40;0.30;;;;;;;;;;10337321;28;20044;-21
2021/07/18 07:28:26;;;;;;;0.50;0.30;;;;;;;;;;10337966;28;20034;-22
2021/07/18 07:33:30;;;;;;;1.05;0.40;;;;;;;;;;10340522;28;20049;-21
2021/07/18 07:38:33;;;;;;;0.80;0.40;;;;;;;;;;10346356;28;20046;-21
2021/07/18 07:43:37;;;;;;;0.20;0.20;;;;;;;;;;10346027;28;20132;-21
2021/07/18 07:48:40;;;;;;;0.85;0.52;;;;;;;;;;10346492;28;20045;-21
2021/07/18 07:53:42;;;;;;;0.38;0.38;;;;;;;;;;10341266;28;20052;-21
2021/07/18 07:58:47;;;;;;;0.55;0.35;;;;;;;;;;10344346;28;20038;-21
2021/07/18 08:03:49;;;;;;;0.65;0.40;;;;;;;;;;10338789;28;20410;-21
2021/07/18 08:08:52;;;;;;;0.20;0.20;;;;;;;;;;10344327;28;20152;-21
2021/07/18 08:13:56;;;;;;;0.47;0.35;;;;;;;;;;10343259;28;20521;-22
2021/07/18 08:18:59;;;;;;;1.48;0.50;;;;;;;;;;10345094;28;20041;-21
2021/07/18 08:24:02;;;;;;;1.98;0.40;;;;;;;;;;10342610;28;20048;-21
2021/07/18 08:29:06;;;;;;;0.98;0.60;;;;;;;;;;10342236;28;20054;-21
2021/07/18 08:34:08;;;;;;;0.40;0.40;;;;;;;;;;10352792;28;20822;-21
2021/07/18 08:39:11;;;;;;;0.90;0.50;;;;;;;;;;10345966;28;20039;-21
2021/07/18 08:44:16;;;;;;;0.70;0.40;;;;;;;;;;10340618;28;20522;-22
2021/07/18 08:49:19;;;;;;;1.33;0.57;;;;;;;;;;10336050;28;20050;-22
2021/07/18 08:54:23;;;;;;;1.08;0.50;;;;;;;;;;10342535;28;20034;-22
2021/07/18 08:59:27;;;;;;;0.93;0.35;;;;;;;;;;10339728;28;20514;-21
2021/07/18 09:04:30;;;;;;;0.60;0.40;;;;;;;;;;10336687;28;20365;-22
2021/07/18 09:09:33;;;;;;;0.82;0.60;;;;;;;;;;10339691;28;20046;-21
2021/07/18 09:14:38;;;;;;;0.45;0.40;;;;;;;;;;10339792;28;20057;-22
2021/07/18 09:19:41;;;;;;;0.93;0.35;;;;;;;;;;10337552;28;20041;-22
2021/07/18 09:24:46;;;;;;;0.40;0.40;;;;;;;;;;10345442;28;20050;-21
2021/07/18 09:29:51;;;;;;;0.40;0.40;;;;;;;;;;10336879;28;20529;-21
2021/07/18 09:34:56;;;;;;;0.88;0.47;;;;;;;;;;10339919;28;20041;-22
2021/07/18 09:40:01;;;;;;;0.40;0.40;;;;;;;;;;10338335;28;20538;-22
2021/07/18 09:45:08;;;;;;;0.65;0.50;;;;;;;;;;10339162;28;20045;-22
2021/07/18 09:50:15;;;;;;;0.60;0.50;;;;;;;;;;10340302;28;20072;-22
2021/07/18 09:55:20;;;;;;;0.98;0.50;;;;;;;;;;10339091;28;20439;-22
2021/07/18 10:00:36;;;;;;;0.52;0.40;;;;;;;;;;10346525;28;20046;-21
2021/07/18 10:05:39;;;;;;;0.50;0.50;;;;;;;;;;10335401;28;20112;-22
2021/07/18 10:10:41;;;;;;;0.30;0.30;;;;;;;;;;10354420;28;20415;-22
2021/07/18 10:15:46;;;;;;;0.45;0.45;;;;;;;;;;10351614;28;20046;-22
2021/07/18 10:20:48;;;;;;;0.68;0.40;;;;;;;;;;10341265;28;20244;-22
2021/07/18 10:25:52;;;;;;;0.77;0.50;;;;;;;;;;10333677;28;20050;-22
2021/07/18 10:30:58;;;;;;;0.40;0.40;;;;;;;;;;10340380;28;20132;-22
2021/07/18 10:36:02;;;;;;;1.15;0.40;;;;;;;;;;10336078;28;20034;-22
2021/07/18 10:41:04;;;;;;;0.50;0.50;;;;;;;;;;10342439;28;20056;-22
2021/07/18 10:46:09;;;;;;;0.57;0.40;;;;;;;;;;10343471;28;20065;-22
2021/07/18 10:51:13;;;;;;;1.05;0.40;;;;;;;;;;10347358;28;20116;-22
2021/07/18 10:56:17;;;;;;;0.70;0.30;;;;;;;;;;10340427;28;20038;-22
2021/07/18 11:01:44;;;;;;;0.40;0.40;;;;;;;;;;10346339;28;20046;-22
2021/07/18 11:06:48;;;;;;;0.30;0.30;;;;;;;;;;10345989;28;21241;-22
2021/07/18 11:11:52;;;;;;;1.52;0.50;;;;;;;;;;10348119;28;20042;-22
2021/07/18 11:16:55;;;;;;;1.10;0.38;;;;;;;;;;10342246;28;20043;-22
2021/07/18 11:21:59;;;;;;;0.60;0.40;;;;;;;;;;10344156;28;20057;-22
2021/07/18 11:27:21;;;;;;;0.63;0.40;;;;;;;;;;10344610;28;20046;-22
2021/07/18 11:32:24;;;;;;;0.40;0.32;;;;;;;;;;10344202;28;20086;-22
2021/07/18 11:37:31;;;;;;;0.35;0.30;;;;;;;;;;10349209;28;20058;-21
2021/07/18 11:42:51;;;;;;;0.20;0.20;;;;;;;;;;10353540;28;20068;-22
2021/07/18 11:47:54;;;;;;;1.17;0.30;;;;;;;;;;10346930;28;20062;-22
2021/07/18 11:52:59;;;;;;;0.77;0.30;;;;;;;;;;10351817;28;20145;-22
2021/07/18 11:58:02;;;;;;;0.65;0.20;;;;;;;;;;10348127;28;20069;-22
2021/07/18 12:03:05;;;;;;;0.95;0.40;;;;;;;;;;10342168;28;20049;-22
2021/07/18 12:08:10;;;;;;;1.35;0.30;;;;;;;;;;10342122;28;20038;-22
2021/07/18 12:13:13;;;;;;;0.60;0.30;;;;;;;;;;10340812;28;20041;-22
2021/07/18 12:18:22;;;;;;;0.55;0.25;;;;;;;;;;10339401;28;20038;-22
2021/07/18 12:23:26;;;;;;;0.47;0.20;;;;;;;;;;10343153;28;20395;-22
2021/07/18 12:28:29;;;;;;;0.75;0.32;;;;;;;;;;10344670;28;20050;-22
2021/07/18 12:33:32;;;;;;;0.10;0.10;;;;;;;;;;10323722;28;20049;-22
2021/07/18 12:38:36;;;;;;;0.70;0.20;;;;;;;;;;10337596;28;20073;-22
2021/07/18 12:43:40;;;;;;;0.73;0.32;;;;;;;;;;10339824;28;20081;-22
2021/07/18 12:48:43;;;;;;;0.20;0.10;;;;;;;;;;10340102;28;20140;-22
2021/07/18 12:53:54;;;;;;;0.20;0.20;;;;;;;;;;10339948;28;20541;-22
2021/07/18 12:58:57;;;;;;;0.22;0.20;;;;;;;;;;10341576;28;20045;-22
2021/07/18 13:04:04;;;;;;;0.17;0.10;;;;;;;;;;10346495;28;20384;-22
2021/07/18 13:09:20;;;;;;;0.43;0.17;;;;;;;;;;10341671;28;20046;-22
2021/07/18 13:14:25;;;;;;;0.22;0.13;;;;;;;;;;10340567;28;20089;-22
2021/07/18 13:19:28;;;;;;;0.25;0.20;;;;;;;;;;10334877;28;20045;-22
2021/07/18 13:24:37;;;;;;;0.45;0.20;;;;;;;;;;10349332;28;20068;-22
2021/07/18 13:29:41;;;;;;;0.45;0.20;;;;;;;;;;10353364;28;20049;-22
2021/07/18 13:34:53;;;;;;;0.30;0.10;;;;;;;;;;10347395;28;20042;-22
2021/07/18 13:39:57;;;;;;;0.35;0.10;;;;;;;;;;10342262;28;20037;-22
2021/07/18 13:45:00;;;;;;;0.38;0.20;;;;;;;;;;10337253;28;20052;-22
2021/07/18 13:50:03;;;;;;;0.20;0.20;;;;;;;;;;10336802;28;20057;-22
2021/07/18 13:55:08;;;;;;;0.20;0.20;;;;;;;;;;10337411;28;20095;-22
2021/07/18 14:00:11;;;;;;;0.55;0.20;;;;;;;;;;10341717;28;20045;-23
2021/07/18 14:05:14;;;;;;;0.10;0.10;;;;;;;;;;10332150;28;20046;-22
2021/07/18 14:10:18;;;;;;;0.13;0.10;;;;;;;;;;10347442;28;20034;-22
2021/07/18 14:15:22;;;;;;;0.10;0.10;;;;;;;;;;10336145;28;20054;-22
2021/07/18 14:20:25;;;;;;;0.50;0.20;;;;;;;;;;10344786;28;20044;-22
2021/07/18 14:25:30;;;;;;;0.20;0.20;;;;;;;;;;10345312;28;20056;-23
2021/07/18 14:30:33;;;;;;;1.08;0.20;;;;;;;;;;10339442;28;20150;-22
2021/07/18 14:35:36;;;;;;;0.20;0.20;;;;;;;;;;10347352;28;20073;-22
2021/07/18 14:40:41;;;;;;;0.30;0.25;;;;;;;;;;10347558;28;20451;-23
2021/07/18 14:45:45;;;;;;;0.15;0.13;;;;;;;;;;10342731;28;20052;-22
2021/07/18 14:50:48;;;;;;;0.73;0.30;;;;;;;;;;10347478;28;20049;-22
2021/07/18 14:55:52;;;;;;;0.40;0.30;;;;;;;;;;10350791;28;20088;-22
2021/07/18 15:00:55;;;;;;;0.20;0.20;;;;;;;;;;10355345;28;20501;-22
2021/07/18 15:05:58;;;;;;;0.40;0.30;;;;;;;;;;10348500;28;20503;-23
2021/07/18 15:11:02;;;;;;;0.30;0.28;;;;;;;;;;10344741;28;20037;-22
2021/07/18 15:16:06;;;;;;;0.30;0.28;;;;;;;;;;10350764;28;20058;-22
2021/07/18 15:21:09;;;;;;;0.43;0.20;;;;;;;;;;10345714;28;20061;-23
2021/07/18 15:26:13;;;;;;;0.45;0.25;;;;;;;;;;10341602;28;20053;-22
2021/07/18 15:31:18;;;;;;;0.30;0.30;;;;;;;;;;10344057;28;20073;-23
2021/07/18 15:36:21;;;;;;;0.45;0.22;;;;;;;;;;10336132;28;20078;-23
2021/07/18 15:41:28;;;;;;;0.57;0.30;;;;;;;;;;10345140;28;20575;-25
2021/07/18 15:46:35;;;;;;;0.20;0.20;;;;;;;;;;10340306;28;20061;-23
2021/07/18 15:51:39;;;;;;;0.68;0.68;;;;;;;;;;10344130;28;20042;-24
2021/07/18 15:56:44;;;;;;;0.20;0.20;;;;;;;;;;10343729;28;20048;-24
2021/07/18 16:01:48;;;;;;;0.35;0.28;;;;;;;;;;10354173;28;20083;-24
2021/07/18 16:06:52;;;;;;;0.20;0.10;;;;;;;;;;10344873;28;20554;-25
2021/07/18 16:11:57;;;;;;;0.30;0.20;;;;;;;;;;10345416;28;20074;-25
2021/07/18 16:17:00;;;;;;;1.75;0.28;;;;;;;;;;10342234;28;20045;-26
2021/07/18 16:22:05;;;;;;;0.40;0.30;;;;;;;;;;10340920;28;20550;-26
2021/07/18 16:27:10;;;;;;;0.20;0.20;;;;;;;;;;10345345;28;20042;-23
2021/07/18 16:32:13;;;;;;;0.60;0.20;;;;;;;;;;10338616;28;20056;-26
2021/07/18 16:37:16;;;;;;;0.40;0.30;;;;;;;;;;10342471;28;20133;-24
2021/07/18 16:42:21;;;;;;;0.25;0.20;;;;;;;;;;10351993;28;20038;-25
2021/07/18 16:47:24;;;;;;;1.98;0.30;;;;;;;;;;10351897;28;20124;-24
2021/07/18 16:52:27;;;;;;;0.10;0.10;;;;;;;;;;10349844;28;20042;-24
2021/07/18 16:57:31;;;;;;;1.65;0.52;;;;;;;;;;10339807;28;20049;-26
2021/07/18 17:02:34;;;;;;;0.30;0.30;;;;;;;;;;10340871;28;20042;-24
2021/07/18 17:07:37;;;;;;;0.50;0.30;;;;;;;;;;10339157;28;20045;-24
2021/07/18 17:12:42;;;;;;;0.40;0.15;;;;;;;;;;10343466;28;20045;-25
2021/07/18 17:17:45;;;;;;;0.90;0.20;;;;;;;;;;10339666;28;20169;-24
2021/07/18 17:22:48;;;;;;;0.80;0.20;;;;;;;;;;10340613;28;20042;-24
2021/07/18 17:27:52;;;;;;;0.68;0.28;;;;;;;;;;10342815;28;20750;-25
2021/07/18 17:32:56;;;;;;;1.30;0.20;;;;;;;;;;10340851;28;20065;-24
2021/07/18 17:37:59;;;;;;;1.45;0.30;;;;;;;;;;10338371;28;20045;-24
2021/07/18 17:43:03;;;;;;;1.58;0.52;;;;;;;;;;10337578;28;20154;-24
2021/07/18 17:48:06;;;;;;;0.60;0.30;;;;;;;;;;10342587;28;20037;-24
2021/07/18 17:53:09;;;;;;;1.60;0.30;;;;;;;;;;10350179;28;20038;-25
2021/07/18 17:58:13;;;;;;;0.20;0.20;;;;;;;;;;10345359;28;20053;-25
2021/07/18 18:03:16;;;;;;;0.75;0.30;;;;;;;;;;10347219;28;20053;-24
2021/07/18 18:08:19;;;;;;;0.25;0.25;;;;;;;;;;10351946;28;20555;-24
2021/07/18 18:13:23;;;;;;;0.77;0.30;;;;;;;;;;10353875;28;20045;-24
2021/07/18 18:18:26;;;;;;;0.38;0.20;;;;;;;;;;10346929;28;20452;-24
2021/07/18 18:23:29;;;;;;;0.55;0.30;;;;;;;;;;10354256;28;20400;-23
2021/07/18 18:28:33;;;;;;;0.22;0.22;;;;;;;;;;10356445;28;20476;-24
2021/07/18 18:33:37;;;;;;;0.52;0.22;;;;;;;;;;10350413;28;20108;-25
2021/07/18 18:38:39;;;;;;;0.40;0.30;;;;;;;;;;10344110;28;20490;-23
2021/07/18 18:43:44;;;;;;;0.32;0.28;;;;;;;;;;10344006;28;20396;-23
2021/07/18 18:48:46;;;;;;;0.52;0.20;;;;;;;;;;10344170;28;20042;-23
2021/07/18 18:53:49;;;;;;;0.28;0.28;;;;;;;;;;10344442;28;20499;-22
2021/07/18 18:58:53;;;;;;;0.32;0.30;;;;;;;;;;10341752;28;20061;-22
2021/07/18 19:03:56;;;;;;;0.73;0.28;;;;;;;;;;10342217;28;20398;-23
2021/07/18 19:08:59;;;;;;;0.40;0.30;;;;;;;;;;10340614;28;20038;-22
2021/07/18 19:14:04;;;;;;;1.05;0.40;;;;;;;;;;10350557;28;20047;-23
2021/07/18 19:19:10;;;;;;;0.80;0.20;;;;;;;;;;10350286;28;20108;-22
2021/07/18 19:24:13;;;;;;;0.82;0.38;;;;;;;;;;10344884;28;20060;-23
2021/07/18 19:29:17;;;;;;;1.02;0.30;;;;;;;;;;10345901;28;20039;-22
2021/07/18 19:34:19;;;;;;;1.40;0.40;;;;;;;;;;10337795;28;20046;-23
2021/07/18 19:39:22;;;;;;;0.85;0.40;;;;;;;;;;10347599;28;20133;-23
2021/07/18 19:44:27;;;;;;;1.20;0.30;;;;;;;;;;10351945;28;20418;-22
2021/07/18 19:49:29;;;;;;;1.38;0.32;;;;;;;;;;10349110;28;20046;-22
2021/07/18 19:54:32;;;;;;;0.20;0.20;;;;;;;;;;10348526;28;20069;-24
2021/07/18 19:59:41;;;;;;;0.85;0.20;;;;;;;;;;10342188;28;20061;-24
2021/07/18 20:04:44;;;;;;;0.90;0.40;;;;;;;;;;10348515;28;20790;-24
2021/07/18 20:09:49;;;;;;;1.42;0.30;;;;;;;;;;10351844;28;20100;-24
2021/07/18 20:14:53;;;;;;;0.50;0.28;;;;;;;;;;10342437;28;20046;-24
2021/07/18 20:19:56;;;;;;;1.13;0.40;;;;;;;;;;10345322;28;20042;-24
2021/07/18 20:24:59;;;;;;;0.82;0.50;;;;;;;;;;10342027;28;20046;-24
2021/07/18 20:30:04;;;;;;;0.68;0.40;;;;;;;;;;10335445;28;20456;-23
2021/07/18 20:35:07;;;;;;;1.20;0.52;;;;;;;;;;10340950;28;20137;-24
2021/07/18 20:40:10;;;;;;;1.25;0.40;;;;;;;;;;10342842;28;20111;-24
2021/07/18 20:45:15;;;;;;;2.53;0.40;;;;;;;;;;10349506;28;20558;-23
2021/07/18 20:50:18;;;;;;;0.80;0.30;;;;;;;;;;10345132;28;20104;-23
2021/07/18 20:55:20;;;;;;;0.98;0.52;;;;;;;;;;10340183;28;20056;-23
2021/07/18 21:00:24;;;;;;;0.38;0.35;;;;;;;;;;10339833;28;20052;-24
2021/07/18 21:05:27;;;;;;;0.50;0.30;;;;;;;;;;10337576;28;20129;-24
2021/07/18 21:10:31;;;;;;;0.63;0.30;;;;;;;;;;10346383;28;20042;-26
2021/07/18 21:15:35;;;;;;;1.10;0.50;;;;;;;;;;10341565;28;20112;-23
2021/07/18 21:20:38;;;;;;;0.70;0.40;;;;;;;;;;10339249;28;20042;-23
2021/07/18 21:25:41;;;;;;;0.40;0.40;;;;;;;;;;10344789;28;20053;-23
2021/07/18 21:30:45;;;;;;;1.48;0.60;;;;;;;;;;10343062;28;20051;-22
2021/07/18 21:35:48;;;;;;;0.82;0.40;;;;;;;;;;10343799;28;20109;-23
2021/07/18 21:40:51;;;;;;;0.80;0.43;;;;;;;;;;10345999;28;20373;-22
2021/07/18 21:45:55;;;;;;;1.20;0.45;;;;;;;;;;10353010;28;20042;-22
2021/07/18 21:50:59;;;;;;;1.25;0.50;;;;;;;;;;10341303;28;20030;-23
2021/07/18 21:56:02;;;;;;;0.50;0.40;;;;;;;;;;10338781;28;20490;-22
2021/07/18 22:01:07;;;;;;;1.08;0.40;;;;;;;;;;10339037;28;20053;-23
2021/07/18 22:06:12;;;;;;;0.55;0.50;;;;;;;;;;10343723;28;20034;-22
2021/07/18 22:11:15;;;;;;;0.68;0.47;;;;;;;;;;10343580;28;20048;-22
2021/07/18 22:16:20;;;;;;;0.60;0.50;;;;;;;;;;10344105;28;20046;-23
2021/07/18 22:21:23;;;;;;;1.25;0.40;;;;;;;;;;10341450;28;20050;-23
2021/07/18 22:26:26;;;;;;;0.75;0.50;;;;;;;;;;10341127;28;20060;-22
2021/07/18 22:31:30;;;;;;;0.70;0.40;;;;;;;;;;10332794;28;20068;-23
2021/07/18 22:36:33;;;;;;;0.73;0.55;;;;;;;;;;10337830;28;20050;-22
2021/07/18 22:41:40;;;;;;;0.57;0.50;;;;;;;;;;10344637;28;20038;-23
2021/07/18 22:46:44;;;;;;;0.95;0.50;;;;;;;;;;10347109;28;20041;-22
2021/07/18 22:51:47;;;;;;;0.55;0.45;;;;;;;;;;10345030;28;20053;-22
2021/07/18 22:56:50;;;;;;;1.02;0.40;;;;;;;;;;10343568;28;20046;-22
2021/07/18 23:01:55;;;;;;;0.30;0.30;;;;;;;;;;10342463;28;20054;-22
2021/07/18 23:06:58;;;;;;;0.85;0.50;;;;;;;;;;10346909;28;20047;-22
2021/07/18 23:12:01;;;;;;;0.45;0.43;;;;;;;;;;10344501;28;20046;-22
2021/07/18 23:17:05;;;;;;;0.95;0.40;;;;;;;;;;10345973;28;20124;-22
2021/07/18 23:22:09;;;;;;;0.40;0.40;;;;;;;;;;10352152;28;20153;-22
2021/07/18 23:27:12;;;;;;;0.80;0.57;;;;;;;;;;10354543;28;20042;-22
2021/07/18 23:32:16;;;;;;;1.90;0.68;;;;;;;;;;10341713;28;20049;-22
2021/07/18 23:37:19;;;;;;;0.90;0.60;;;;;;;;;;10344903;28;20053;-22
2021/07/18 23:42:21;;;;;;;0.50;0.50;;;;;;;;;;10337674;28;20069;-22
2021/07/18 23:47:25;;;;;;;0.45;0.45;;;;;;;;;;10343051;28;20046;-23
2021/07/18 23:52:28;;;;;;;0.55;0.50;;;;;;;;;;10344707;28;20050;-22
2021/07/18 23:57:31;;;;;;;1.20;0.50;;;;;;;;;;10336717;28;20050;-22
